Toledo, OH

9:49 AM EST on February 25, 2017 (GMT -0500)
Al`s Backyard,East Toledo | | Change Station

Elev 606 ft 41.65 °N, 83.52 °W | Updated 56 seconds ago

Snow
Snow
36.9 °F
Feels Like 32 °F
N
6.8
Wind Variable Wind from SSE

Today
High -- | Low -- °F
--% Chance of Precip.
Yesterday
High -- | Low -- °F
Precip. -- in
Pressure 29.62 in
Visibility 5.0 miles
Clouds Few 1500 ft
Mostly Cloudy 2300 ft
Overcast 7000 ft
Windchill 32 °F
Dew Point 31 °F
Humidity 80%
Rainfall 0.00 in
Snow Depth Not available.
7:14 AM 6:20 PM
Waning Crescent, 1% visible
SPECI KTDZ 251423Z AUTO 25014G24KT 5SM -SN BR FEW015 BKN023 OVC070 03/01 A2962 RMK AO2 RAB10E13SNB13 P0001 T00280006
Pressure 29.62 in
Visibility 5.0 miles
Clouds Few 1500 ft
Mostly Cloudy 2300 ft
Overcast 7000 ft
Windchill 32 °F
Dew Point 31 °F
Humidity 80%
Rainfall 0.00 in
Snow Depth Not available.
7:14 AM 6:20 PM
Waning Crescent, 1% visible
SPECI KTDZ 251423Z AUTO 25014G24KT 5SM -SN BR FEW015 BKN023 OVC070 03/01 A2962 RMK AO2 RAB10E13SNB13 P0001 T00280006

Get Your Daily Forecast Email!

Thanks for signing up!

Be on the lookout for a verification email in your inbox.

You'll start receiving the daily forecast at 8 AM.

×

10-Day Weather Forecast

Almanac

Astronomy

Feb. 25, 2017 Rise Set
Actual Time
Civil Twilight
Nautical Twilight
Astronomical Twilight
Moon
Length of Visible Light
Length of Day
Tomorrow will be .
, % of the Moon is Illuminated

Today's Extremes

State Highs State Lows

Community

WunderPhotos

Upload Photos

1,962,540 photos uploaded!

WunderBlog® & News

Nearby

Air Quality

  Air Quality AQ Index Pollutant
Not available.

Snow Depth

Station Depth Elevation

Earthquake Activity

City Distance Mag. Time & Date
Minimum magnitude displayed is 2.5.

Coastal Water Temperatures

Place Temperature

Stations

Nearby Weather Stations

Station Location Temp. Windchill Dew Point Humidity Wind Precip. Elev Updated Type
                   

Watches & Warnings

There are currently no watches in effect.